createdAt,value
2019-04-01T00:00:27.123Z,98433.95
2019-04-01T00:02:58.795Z,98438.18
2019-04-01T00:05:30.386Z,98430.03
2019-04-01T00:08:02.022Z,98440.31
2019-04-01T00:10:33.637Z,98443.53
2019-04-01T00:13:05.249Z,98430.73
2019-04-01T00:15:36.841Z,98430.14
2019-04-01T00:18:08.404Z,98433.67
2019-04-01T00:20:39.990Z,98436.72
2019-04-01T00:23:11.691Z,98443.06
2019-04-01T00:25:43.465Z,98438.33
2019-04-01T00:28:15.065Z,98448.67
2019-04-01T00:30:46.682Z,98446.61
2019-04-01T00:33:18.262Z,98446.08
2019-04-01T00:35:49.878Z,98437.87
2019-04-01T00:38:21.581Z,98443.97
2019-04-01T00:40:53.273Z,98443.23
2019-04-01T00:43:59.831Z,98442.18
2019-04-01T00:46:32.855Z,98444.25
2019-04-01T00:49:04.448Z,98442.94
2019-04-01T00:51:36.034Z,98443.16
2019-04-01T00:54:07.609Z,98441.13
2019-04-01T00:56:39.245Z,98440.41
2019-04-01T00:59:10.935Z,98444.13
2019-04-01T01:01:42.634Z,98437.61
2019-04-01T01:04:14.228Z,98442.83
2019-04-01T01:06:45.848Z,98439.77
2019-04-01T01:09:17.512Z,98439.49
2019-04-01T01:11:49.155Z,98433.34
2019-04-01T01:14:20.741Z,98441.86
2019-04-01T01:16:52.366Z,98441.71
2019-04-01T01:19:23.965Z,98437.03
2019-04-01T01:21:55.585Z,98437.52
2019-04-01T01:24:28.243Z,98434.12
2019-04-01T01:26:59.841Z,98443.17
2019-04-01T01:29:31.415Z,98439.33
2019-04-01T01:32:03.039Z,98446.22
2019-04-01T01:34:34.639Z,98443.14
2019-04-01T01:37:06.261Z,98441.19
2019-04-01T01:39:37.886Z,98444.45
2019-04-01T01:42:11.040Z,98439.08
2019-04-01T01:44:42.654Z,98436.91
2019-04-01T01:47:14.262Z,98440.37
2019-04-01T01:49:45.837Z,98439.14
2019-04-01T01:52:17.403Z,98443.81
2019-04-01T01:54:49.020Z,98443.73
2019-04-01T01:57:20.587Z,98439.62
2019-04-01T01:59:53.253Z,98443.33
2019-04-01T02:02:24.845Z,98441.91
2019-04-01T02:04:56.423Z,98436.12
2019-04-01T02:07:28.046Z,98434.38
2019-04-01T02:09:59.634Z,98435.67
2019-04-01T02:12:31.226Z,98434.00
2019-04-01T02:15:02.812Z,98436.61
2019-04-01T02:17:34.485Z,98433.34
2019-04-01T02:20:06.204Z,98430.27
2019-04-01T02:22:37.774Z,98436.95
2019-04-01T02:25:09.436Z,98435.76
2019-04-01T02:27:42.446Z,98432.01
2019-04-01T02:30:14.021Z,98429.67
2019-04-01T02:32:45.644Z,98426.06
2019-04-01T02:35:17.257Z,98424.94
2019-04-01T02:37:48.821Z,98424.55
2019-04-01T02:40:22.170Z,98424.80
2019-04-01T02:42:53.710Z,98421.58
2019-04-01T02:45:26.353Z,98417.76
2019-04-01T02:47:57.935Z,98418.11
2019-04-01T02:50:29.546Z,98416.45
2019-04-01T02:53:01.170Z,98421.48
2019-04-01T02:55:33.260Z,98424.44
2019-04-01T02:58:04.838Z,98419.62
2019-04-01T03:00:36.425Z,98419.33
2019-04-01T03:03:08.950Z,98414.95
2019-04-01T03:05:40.549Z,98410.75
2019-04-01T03:08:12.161Z,98419.03
2019-04-01T03:10:43.729Z,98422.67
2019-04-01T03:13:15.339Z,98420.34
2019-04-01T03:15:46.952Z,98424.41
2019-04-01T03:18:18.510Z,98423.32
2019-04-01T03:20:50.132Z,98419.77
2019-04-01T03:23:21.672Z,98416.36
2019-04-01T03:25:53.301Z,98420.48
2019-04-01T03:28:24.894Z,98415.09
2019-04-01T03:30:56.590Z,98419.91
2019-04-01T03:33:28.302Z,98416.61
2019-04-01T03:35:59.889Z,98419.39
2019-04-01T03:38:31.467Z,98416.78
2019-04-01T03:41:03.077Z,98422.28
2019-04-01T03:43:34.669Z,98416.61
2019-04-01T03:46:06.230Z,98411.58
2019-04-01T03:48:37.814Z,98410.96
2019-04-01T03:51:09.365Z,98421.38
2019-04-01T03:53:40.982Z,98411.97
2019-04-01T03:56:12.572Z,98421.91
2019-04-01T03:58:44.157Z,98421.25
2019-04-01T04:01:15.732Z,98423.82
2019-04-01T04:03:47.329Z,98415.33
2019-04-01T04:06:18.910Z,98417.02
2019-04-01T04:08:50.505Z,98422.09
2019-04-01T04:11:23.349Z,98420.35
2019-04-01T04:13:54.929Z,98420.91
2019-04-01T04:16:26.488Z,98425.65
2019-04-01T04:18:58.088Z,98423.05
2019-04-01T04:21:30.754Z,98429.20
2019-04-01T04:24:03.495Z,98434.66
2019-04-01T04:26:35.583Z,98434.09
2019-04-01T04:29:07.394Z,98433.27
2019-04-01T04:31:38.992Z,98432.33
2019-04-01T04:34:10.596Z,98436.05
2019-04-01T04:36:42.221Z,98440.25
2019-04-01T04:39:13.787Z,98435.75
2019-04-01T04:41:45.368Z,98444.29
2019-04-01T04:44:16.973Z,98444.94
2019-04-01T04:46:48.560Z,98444.28
2019-04-01T04:49:20.409Z,98437.96
2019-04-01T04:51:51.999Z,98445.67
2019-04-01T04:54:23.559Z,98444.59
2019-04-01T04:56:55.147Z,98450.35
2019-04-01T04:59:26.792Z,98446.98
2019-04-01T05:01:58.402Z,98447.37
2019-04-01T05:04:29.955Z,98449.40
2019-04-01T05:07:01.660Z,98448.72
2019-04-01T05:09:33.223Z,98450.42
2019-04-01T05:12:04.844Z,98455.28
2019-04-01T05:14:36.547Z,98456.11
2019-04-01T05:17:08.259Z,98456.97
2019-04-01T05:19:39.892Z,98459.02
2019-04-01T05:22:12.127Z,98464.22
2019-04-01T05:24:43.877Z,98462.75
2019-04-01T05:27:18.968Z,98465.00
2019-04-01T05:29:53.716Z,98467.22
2019-04-01T05:32:27.154Z,98464.19
2019-04-01T05:35:02.041Z,98465.23
2019-04-01T05:37:34.197Z,98469.48
2019-04-01T05:40:06.796Z,98474.64
2019-04-01T05:42:38.709Z,98472.81
2019-04-01T05:45:11.011Z,98473.47
2019-04-01T05:47:48.999Z,98472.56
2019-04-01T05:50:20.569Z,98475.97
2019-04-01T05:52:52.148Z,98473.95
2019-04-01T05:55:23.744Z,98474.45
2019-04-01T05:57:55.610Z,98475.89
2019-04-01T06:00:40.782Z,98474.53
2019-04-01T06:03:12.352Z,98478.53
2019-04-01T06:05:44.052Z,98486.16
2019-04-01T06:08:16.059Z,98480.20
2019-04-01T06:10:48.049Z,98484.29
2019-04-01T06:13:19.649Z,98480.28
2019-04-01T06:15:51.245Z,98483.70
2019-04-01T06:18:22.827Z,98490.23
2019-04-01T06:20:55.325Z,98482.48
2019-04-01T06:23:26.922Z,98486.53
2019-04-01T06:25:58.553Z,98484.11
2019-04-01T06:28:30.176Z,98475.37
2019-04-01T06:31:01.939Z,98474.45
2019-04-01T06:33:33.544Z,98476.25
2019-04-01T06:36:05.150Z,98476.28
2019-04-01T06:38:36.910Z,98478.80
2019-04-01T06:41:08.558Z,98477.80
2019-04-01T06:43:40.146Z,98471.73
2019-04-01T06:46:11.776Z,98474.84
2019-04-01T06:48:43.507Z,98469.75
2019-04-01T06:51:15.343Z,98472.42
2019-04-01T06:53:46.942Z,98477.41
2019-04-01T06:56:18.537Z,98473.79
2019-04-01T06:58:50.107Z,98476.69
2019-04-01T07:01:22.027Z,98477.41
2019-04-01T07:03:53.586Z,98476.89
2019-04-01T07:06:25.270Z,98471.48
2019-04-01T07:08:56.846Z,98473.17
2019-04-01T07:11:28.553Z,98471.68
2019-04-01T07:14:00.561Z,98469.17
2019-04-01T07:16:32.241Z,98471.27
2019-04-01T07:19:03.946Z,98475.03
2019-04-01T07:21:35.530Z,98477.26
2019-04-01T07:24:07.437Z,98478.78
2019-04-01T07:26:39.129Z,98473.27
2019-04-01T07:29:10.840Z,98479.92
2019-04-01T07:31:42.417Z,98478.76
2019-04-01T07:34:14.017Z,98478.51
2019-04-01T07:36:46.966Z,98482.77
2019-04-01T07:39:18.588Z,98481.06
2019-04-01T07:41:50.193Z,98481.95
2019-04-01T07:44:22.083Z,98483.17
2019-04-01T07:46:54.731Z,98478.59
2019-04-01T07:49:26.330Z,98477.09
2019-04-01T07:51:58.985Z,98477.56
2019-04-01T07:54:30.618Z,98475.41
2019-04-01T07:57:03.097Z,98474.41
2019-04-01T07:59:34.765Z,98472.12
2019-04-01T08:02:06.345Z,98474.95
2019-04-01T08:04:38.006Z,98468.27
2019-04-01T08:07:13.097Z,98472.67
2019-04-01T08:09:42.920Z,98472.66
2019-04-01T08:12:14.493Z,98459.14
2019-04-01T08:14:47.231Z,98461.03
2019-04-01T08:17:19.913Z,98460.82
2019-04-01T08:19:51.586Z,98457.09
2019-04-01T08:22:23.380Z,98461.11
2019-04-01T08:24:55.308Z,98461.15
2019-04-01T08:27:27.863Z,98455.46
2019-04-01T08:29:59.494Z,98460.55
2019-04-01T08:32:31.063Z,98454.83
2019-04-01T08:35:02.640Z,98452.28
2019-04-01T08:37:34.270Z,98451.55
2019-04-01T08:40:06.930Z,98455.33
2019-04-01T08:42:38.827Z,98456.65
2019-04-01T08:45:10.540Z,98448.59
2019-04-01T08:47:42.122Z,98456.44
2019-04-01T08:50:13.707Z,98456.03
2019-04-01T08:52:45.606Z,98458.68
2019-04-01T08:55:18.955Z,98452.59
2019-04-01T08:57:50.573Z,98447.13
2019-04-01T09:00:22.319Z,98439.53
2019-04-01T09:02:53.854Z,98444.89
2019-04-01T09:05:25.454Z,98436.48
2019-04-01T09:07:57.288Z,98447.72
2019-04-01T09:10:28.891Z,98437.16
2019-04-01T09:13:01.946Z,98439.73
2019-04-01T09:15:33.600Z,98441.48
2019-04-01T09:18:05.201Z,98428.56
2019-04-01T09:20:36.813Z,98429.73
2019-04-01T09:23:08.404Z,98431.31
2019-04-01T09:25:40.016Z,98425.22
2019-04-01T09:28:11.606Z,98420.03
2019-04-01T09:30:43.217Z,98412.66
2019-04-01T09:33:14.799Z,98415.54
2019-04-01T09:35:46.403Z,98418.96
2019-04-01T09:38:17.984Z,98411.53
2019-04-01T09:40:49.575Z,98412.30
2019-04-01T09:43:21.183Z,98408.13
2019-04-01T09:45:52.790Z,98413.34
2019-04-01T09:48:24.384Z,98407.07
2019-04-01T09:50:56.037Z,98399.72
2019-04-01T09:53:28.640Z,98406.67
2019-04-01T09:56:00.211Z,98405.13
2019-04-01T09:58:32.300Z,98394.39
2019-04-01T10:01:03.880Z,98392.66
2019-04-01T10:03:35.460Z,98393.13
2019-04-01T10:06:10.268Z,98384.87
2019-04-01T10:08:42.478Z,98380.24
2019-04-01T10:11:13.680Z,98376.59
2019-04-01T10:13:45.258Z,98372.97
2019-04-01T10:16:16.826Z,98375.88
2019-04-01T10:18:48.410Z,98366.97
2019-04-01T10:21:20.037Z,98369.09
2019-04-01T10:23:51.713Z,98362.83
2019-04-01T10:26:23.299Z,98358.23
2019-04-01T10:28:54.929Z,98354.52
2019-04-01T10:31:26.533Z,98353.32
2019-04-01T10:33:58.129Z,98351.34
2019-04-01T10:36:29.738Z,98347.59
2019-04-01T10:39:01.337Z,98345.98
2019-04-01T10:41:34.552Z,98335.20
2019-04-01T10:44:06.269Z,98336.23
2019-04-01T10:46:40.649Z,98330.30
2019-04-01T10:49:11.437Z,98329.69
2019-04-01T10:51:43.113Z,98326.19
2019-04-01T10:54:14.714Z,98326.55
2019-04-01T10:56:46.621Z,98322.64
2019-04-01T10:59:18.281Z,98324.03
2019-04-01T11:01:49.884Z,98324.49
2019-04-01T11:04:21.533Z,98316.13
2019-04-01T11:06:53.218Z,98314.41
2019-04-01T11:09:37.719Z,98314.34
2019-04-01T11:11:58.178Z,98306.41
2019-04-01T11:14:30.019Z,98310.38
2019-04-01T11:17:04.372Z,98299.30
2019-04-01T11:19:34.983Z,98298.17
2019-04-01T11:22:06.941Z,98297.05
2019-04-01T11:24:39.536Z,98291.52
2019-04-01T11:27:11.435Z,98286.06
2019-04-01T11:29:43.051Z,98284.69
2019-04-01T11:32:14.681Z,98294.59
2019-04-01T11:34:46.638Z,98289.45
2019-04-01T11:37:18.243Z,98282.34
2019-04-01T11:39:49.792Z,98279.98
2019-04-01T11:42:22.919Z,98272.95
2019-04-01T11:44:54.827Z,98265.89
2019-04-01T11:47:26.393Z,98256.77
2019-04-01T11:49:58.037Z,98259.34
2019-04-01T11:52:29.641Z,98259.23
2019-04-01T11:55:01.260Z,98269.48
2019-04-01T11:57:33.999Z,98257.69
2019-04-01T12:00:12.700Z,98251.14
2019-04-01T12:02:44.239Z,98253.95
2019-04-01T12:05:15.832Z,98243.68
2019-04-01T12:07:48.500Z,98249.81
2019-04-01T12:10:20.121Z,98246.17
2019-04-01T12:12:52.112Z,98246.03
2019-04-01T12:15:23.751Z,98238.27
2019-04-01T12:17:55.347Z,98227.33
2019-04-01T12:20:27.020Z,98225.06
2019-04-01T12:22:58.595Z,98214.84
2019-04-01T12:25:30.244Z,98215.22
2019-04-01T12:28:01.857Z,98219.63
2019-04-01T12:30:33.496Z,98222.95
2019-04-01T12:33:05.286Z,98202.42
2019-04-01T12:35:37.480Z,98197.50
2019-04-01T12:38:09.067Z,98199.89
2019-04-01T12:40:41.307Z,98199.47
2019-04-01T12:43:12.963Z,98190.67
2019-04-01T12:45:44.597Z,98180.63
2019-04-01T12:48:16.224Z,98191.89
2019-04-01T12:50:47.845Z,98184.20
2019-04-01T12:53:19.450Z,98181.82
2019-04-01T12:55:51.545Z,98178.66
2019-04-01T12:58:25.215Z,98168.71
2019-04-01T13:00:56.508Z,98171.78
2019-04-01T13:03:28.076Z,98167.41
2019-04-01T13:05:59.731Z,98170.05
2019-04-01T13:08:32.389Z,98161.32
2019-04-01T13:11:04.014Z,98159.98
2019-04-01T13:13:35.864Z,98155.80
2019-04-01T13:16:09.241Z,98152.41
2019-04-01T13:18:40.987Z,98147.94
2019-04-01T13:21:12.851Z,98151.91
2019-04-01T13:23:44.479Z,98144.28
2019-04-01T13:26:16.075Z,98142.95
2019-04-01T13:28:47.653Z,98140.26
2019-04-01T13:31:19.297Z,98134.83
2019-04-01T13:33:50.913Z,98127.61
2019-04-01T13:36:22.528Z,98133.39
2019-04-01T13:38:54.153Z,98126.13
2019-04-01T13:41:25.781Z,98130.91
2019-04-01T13:43:57.343Z,98120.39
2019-04-01T13:46:29.236Z,98124.76
2019-04-01T13:49:04.408Z,98113.48
2019-04-01T13:51:35.164Z,98117.24
2019-04-01T13:54:09.068Z,98110.32
2019-04-01T13:56:40.120Z,98115.39
2019-04-01T13:59:12.861Z,98108.59
2019-04-01T14:01:44.498Z,98110.70
2019-04-01T14:04:16.445Z,98101.98
2019-04-01T14:06:48.080Z,98096.50
2019-04-01T14:09:20.773Z,98099.41
2019-04-01T14:11:52.580Z,98088.45
2019-04-01T14:14:25.269Z,98095.50
2019-04-01T14:16:56.958Z,98085.23
2019-04-01T14:19:28.541Z,98093.06
2019-04-01T14:22:00.174Z,98084.27
2019-04-01T14:24:31.784Z,98084.06
2019-04-01T14:27:03.403Z,98080.04
2019-04-01T14:29:36.560Z,98082.28
2019-04-01T14:32:08.489Z,98081.01
2019-04-01T14:34:40.118Z,98080.86
2019-04-01T14:37:12.462Z,98072.94
2019-04-01T14:39:46.464Z,98068.82
2019-04-01T14:42:18.138Z,98073.59
2019-04-01T14:44:59.662Z,98070.72
2019-04-01T14:47:32.568Z,98072.17
2019-04-01T14:50:07.485Z,98067.76
2019-04-01T14:52:37.679Z,98070.30
2019-04-01T14:55:09.783Z,98071.52
2019-04-01T14:57:41.427Z,98067.25
2019-04-01T15:00:15.547Z,98058.39
2019-04-01T15:02:47.146Z,98058.00
2019-04-01T15:05:18.736Z,98051.61
2019-04-01T15:07:50.378Z,98060.23
2019-04-01T15:10:22.088Z,98053.33
2019-04-01T15:13:04.912Z,98044.98
2019-04-01T15:15:27.033Z,98046.92
2019-04-01T15:17:58.658Z,98046.77
2019-04-01T15:20:30.296Z,98045.80
2019-04-01T15:23:01.933Z,98041.64
2019-04-01T15:25:33.565Z,98045.26
2019-04-01T15:28:05.215Z,98038.50
2019-04-01T15:30:36.864Z,98036.32
2019-04-01T15:33:08.535Z,98028.59
2019-04-01T15:35:40.152Z,98032.20
2019-04-01T15:38:11.739Z,98031.08
2019-04-01T15:40:43.353Z,98034.18
2019-04-01T15:43:14.961Z,98024.58
2019-04-01T15:45:46.636Z,98026.52
2019-04-01T15:48:18.278Z,98022.01
2019-04-01T15:50:49.857Z,98024.19
2019-04-01T15:53:23.490Z,98023.22
2019-04-01T15:55:54.839Z,98018.65
2019-04-01T15:58:26.414Z,98013.92
2019-04-01T16:00:58.020Z,98008.14
2019-04-01T16:03:29.647Z,98013.27
2019-04-01T16:06:02.999Z,98004.06
2019-04-01T16:08:34.656Z,98011.83
2019-04-01T16:11:06.312Z,98002.00
2019-04-01T16:13:38.053Z,98015.15
2019-04-01T16:16:09.671Z,98008.55
2019-04-01T16:18:41.328Z,98008.50
2019-04-01T16:21:13.066Z,97998.51
2019-04-01T16:23:45.062Z,97993.03
2019-04-01T16:26:16.697Z,97992.82
2019-04-01T16:28:48.379Z,97987.23
2019-04-01T16:31:19.991Z,97986.59
2019-04-01T16:33:51.632Z,97984.59
2019-04-01T16:36:23.260Z,97986.59
2019-04-01T16:38:55.016Z,97985.06
2019-04-01T16:41:26.620Z,97986.83
2019-04-01T16:43:58.331Z,97987.65
2019-04-01T16:46:29.951Z,97985.55
2019-04-01T16:49:01.623Z,97982.50
2019-04-01T16:51:33.255Z,97989.77
2019-04-01T16:54:04.917Z,97988.45
2019-04-01T16:56:37.233Z,97984.62
2019-04-01T16:59:09.727Z,97986.61
2019-04-01T17:01:41.763Z,97987.44
2019-04-01T17:04:13.472Z,97984.80
2019-04-01T17:06:45.144Z,97988.03
2019-04-01T17:09:16.750Z,97980.57
2019-04-01T17:11:48.383Z,97988.48
2019-04-01T17:14:19.988Z,97983.28
2019-04-01T17:16:51.654Z,97983.89
2019-04-01T17:19:23.323Z,97984.47
2019-04-01T17:21:54.916Z,97985.19
2019-04-01T17:24:28.079Z,97986.66
2019-04-01T17:27:24.954Z,97975.20
2019-04-01T17:29:56.664Z,97983.41
2019-04-01T17:32:28.681Z,97981.59
2019-04-01T17:35:00.317Z,97985.02
2019-04-01T17:37:32.414Z,97982.67
2019-04-01T17:40:04.100Z,97986.09
2019-04-01T17:42:39.258Z,97980.77
2019-04-01T17:45:32.087Z,97978.56
2019-04-01T17:48:04.596Z,97988.08
2019-04-01T17:50:36.683Z,97990.70
2019-04-01T17:53:10.738Z,97982.98
2019-04-01T17:55:45.640Z,97986.55
2019-04-01T17:58:17.711Z,97986.97
2019-04-01T18:00:57.593Z,97987.33
2019-04-01T18:03:29.275Z,97983.91
2019-04-01T18:06:00.918Z,97983.91
2019-04-01T18:08:34.098Z,97983.48
2019-04-01T18:11:05.956Z,97985.48
2019-04-01T18:13:37.587Z,97988.53
2019-04-01T18:16:09.200Z,97986.46
2019-04-01T18:18:40.829Z,97990.83
2019-04-01T18:21:13.495Z,97990.69
2019-04-01T18:23:45.154Z,97999.14
2019-04-01T18:26:17.131Z,97995.35
2019-04-01T18:28:49.724Z,97999.80
2019-04-01T18:31:21.327Z,97998.91
2019-04-01T18:33:56.534Z,98004.58
2019-04-01T18:36:26.289Z,98004.41
2019-04-01T18:38:58.008Z,98004.91
2019-04-01T18:41:29.670Z,98001.51
2019-04-01T18:44:01.277Z,98010.48
2019-04-01T18:46:32.893Z,98013.02
2019-04-01T18:49:04.638Z,98010.28
2019-04-01T18:51:36.631Z,98012.47
2019-04-01T18:54:08.915Z,98009.19
2019-04-01T18:56:40.513Z,98007.59
2019-04-01T18:59:12.154Z,98009.47
2019-04-01T19:01:44.198Z,98012.66
2019-04-01T19:04:17.225Z,98014.56
2019-04-01T19:06:49.867Z,98011.91
2019-04-01T19:09:21.694Z,98010.73
2019-04-01T19:12:03.381Z,98012.79
2019-04-01T19:14:26.670Z,98006.26
2019-04-01T19:16:58.253Z,98010.03
2019-04-01T19:19:29.871Z,98016.31
2019-04-01T19:22:01.498Z,98015.11
2019-04-01T19:24:33.130Z,98021.00
2019-04-01T19:27:04.787Z,98015.78
2019-04-01T19:29:36.432Z,98023.21
2019-04-01T19:32:09.372Z,98021.30
2019-04-01T19:34:41.068Z,98022.88
2019-04-01T19:37:12.729Z,98027.11
2019-04-01T19:39:44.340Z,98023.77
2019-04-01T19:42:15.953Z,98022.59
2019-04-01T19:44:47.549Z,98024.16
2019-04-01T19:47:19.227Z,98026.78
2019-04-01T19:49:50.840Z,98025.03
2019-04-01T19:52:22.513Z,98025.28
2019-04-01T19:54:54.431Z,98024.67
2019-04-01T19:57:26.069Z,98024.80
2019-04-01T19:59:57.710Z,98018.00
2019-04-01T20:02:29.341Z,98019.36
2019-04-01T20:05:00.928Z,98020.06
2019-04-01T20:07:33.601Z,98028.17
2019-04-01T20:10:05.890Z,98023.43
2019-04-01T20:12:37.447Z,98028.31
2019-04-01T20:15:11.925Z,98021.55
2019-04-01T20:17:43.329Z,98019.06
2019-04-01T20:20:15.442Z,98017.87
2019-04-01T20:22:47.037Z,98022.66
2019-04-01T20:25:19.143Z,98019.92
2019-04-01T20:27:50.778Z,98021.84
2019-04-01T20:30:22.491Z,98017.11
2019-04-01T20:32:54.128Z,98010.56
2019-04-01T20:35:25.718Z,98015.56
2019-04-01T20:37:58.281Z,98013.92
2019-04-01T20:40:29.921Z,98013.59
2019-04-01T20:43:01.520Z,98011.55
2019-04-01T20:45:33.172Z,98013.23
2019-04-01T20:48:04.869Z,98010.36
2019-04-01T20:50:36.532Z,98007.66
2019-04-01T20:53:08.116Z,98011.34
2019-04-01T20:55:48.002Z,98006.34
2019-04-01T20:58:13.255Z,98010.31
2019-04-01T21:00:45.804Z,98007.20
2019-04-01T21:03:18.900Z,98005.16
2019-04-01T21:05:50.508Z,98005.89
2019-04-01T21:08:22.354Z,98000.81
2019-04-01T21:10:53.985Z,97994.14
2019-04-01T21:13:25.621Z,97993.80
2019-04-01T21:15:57.184Z,98000.56
2019-04-01T21:18:28.841Z,97989.51
2019-04-01T21:21:00.482Z,97993.19
2019-04-01T21:23:32.058Z,97985.48
2019-04-01T21:26:03.820Z,97980.25
2019-04-01T21:28:35.461Z,97982.23
2019-04-01T21:31:07.108Z,97991.17
2019-04-01T21:33:38.751Z,97985.20
2019-04-01T21:36:10.344Z,97991.66
2019-04-01T21:38:41.964Z,97991.51
2019-04-01T21:41:13.578Z,97981.31
2019-04-01T21:43:45.237Z,97979.73
2019-04-01T21:46:16.881Z,97981.77
2019-04-01T21:48:48.488Z,97980.21
2019-04-01T21:51:20.071Z,97974.03
2019-04-01T21:53:51.669Z,97979.88
2019-04-01T21:56:23.515Z,97976.28
2019-04-01T21:58:56.148Z,97978.69
2019-04-01T22:01:28.911Z,97980.69
2019-04-01T22:04:00.575Z,97972.72
2019-04-01T22:06:32.163Z,97967.03
2019-04-01T22:09:06.944Z,97958.81
2019-04-01T22:11:39.507Z,97965.84
2019-04-01T22:14:11.100Z,97972.38
2019-04-01T22:16:42.741Z,97963.46
2019-04-01T22:19:14.346Z,97967.75
2019-04-01T22:21:45.922Z,97965.50
2019-04-01T22:24:17.490Z,97964.89
2019-04-01T22:26:49.090Z,97966.31
2019-04-01T22:29:20.672Z,97961.69
2019-04-01T22:31:52.323Z,97965.13
2019-04-01T22:34:23.889Z,97969.17
2019-04-01T22:36:55.523Z,97969.29
2019-04-01T22:39:27.593Z,97961.44
2019-04-01T22:41:59.284Z,97957.15
2019-04-01T22:44:30.901Z,97957.27
2019-04-01T22:47:02.537Z,97952.89
2019-04-01T22:49:34.131Z,97960.63
2019-04-01T22:52:06.479Z,97951.58
2019-04-01T22:54:38.445Z,97950.73
2019-04-01T22:57:09.990Z,97952.77
2019-04-01T22:59:41.598Z,97950.64
2019-04-01T23:02:13.542Z,97948.51
2019-04-01T23:04:45.586Z,97950.87
2019-04-01T23:07:17.155Z,97941.95
2019-04-01T23:09:48.797Z,97946.48
2019-04-01T23:12:22.164Z,97944.68
2019-04-01T23:14:53.699Z,97946.13
2019-04-01T23:17:25.274Z,97941.37
2019-04-01T23:19:56.838Z,97936.59
2019-04-01T23:22:29.259Z,97930.17
2019-04-01T23:25:01.287Z,97932.34
2019-04-01T23:27:32.933Z,97926.86
2019-04-01T23:30:06.636Z,97926.25
2019-04-01T23:32:38.235Z,97924.34
2019-04-01T23:35:12.275Z,97924.11
2019-04-01T23:38:02.899Z,97920.19
2019-04-01T23:40:34.535Z,97915.09
2019-04-01T23:43:06.176Z,97922.45
2019-04-01T23:45:37.771Z,97917.23
2019-04-01T23:48:09.357Z,97917.94
2019-04-01T23:50:40.933Z,97910.47
2019-04-01T23:53:31.833Z,97914.98
2019-04-01T23:56:03.481Z,97912.11
2019-04-01T23:58:35.073Z,97910.94
